METAR Data
IDs: Format: Raw Decoded Include TAF

Data at: 1715 UTC 21 Sep 2018

KGNC 211655Z AUTO 03015G20KT 10SM SCT013 BKN029 OVC038 22/18 A3012 RMK AO2 T02170183
KGNC 211635Z AUTO 01011G17KT 10SM -DZ SCT013 BKN031 OVC045 20/20 A3012 RMK AO2 T02040196
KGNC 211615Z AUTO 02018G22KT 10SM SCT016 SCT021 OVC039 22/18 A3011 RMK AO2 T02240180
KGNC 211555Z AUTO 03013G19KT 10SM SCT020 SCT030 OVC039 22/18 A3010 RMK AO2 T02230179
KGNC 211535Z AUTO 02010G16KT 10SM SCT015 BKN023 BKN031 22/19 A3009 RMK AO2 T02170185
KGNC 211515Z AUTO 01010G15KT 10SM SCT011 22/19 A3008 RMK AO2 T02190185
KGNC 211455Z AUTO 35010KT 10SM SCT009 21/19 A3007 RMK AO2 T02120188
KGNC 211435Z AUTO 35010G16KT 10SM SCT009 20/19 A3007 RMK AO2 T02030188
KGNC 211415Z AUTO 34008KT 7SM SCT007 20/19 A3006 RMK AO2 T01980188
KGNC 211355Z AUTO 34010KT 10SM BKN007 19/19 A3006 RMK AO2 T01900186
KGNC 211335Z AUTO 36011G16KT 10SM SCT007 BKN120 19/19 A3005 RMK AO2 T01920190
KGNC 211315Z AUTO 34009KT 10SM OVC120 20/19 A3004 RMK AO2 T01950191
KGNC 211255Z AUTO 35008KT 10SM SCT034 OVC120 20/19 A3003 RMK AO2 T01950193
KGNC 211235Z AUTO 36012G17KT 10SM SCT010 BKN040 OVC120 20/20 A3003 RMK AO2 T01950195
KGNC 211215Z AUTO 33006KT 10SM SCT010 BKN036 OVC060 20/20 A3003 RMK AO2 T01970197
KGNC 211155Z AUTO 35006KT 10SM BKN028 BKN038 OVC060 20/20 A3002 RMK AO2 60001 70055 T01960196 10204 20189
KGNC 211135Z AUTO 33005KT 10SM BKN030 BKN042 OVC055 20/20 A3002 RMK AO2 T01950195
KGNC 211115Z AUTO 34004KT 10SM SCT030 SCT042 OVC080 19/19 A3001 RMK AO2 T01930193
KGNC 211055Z AUTO 34003KT 10SM BKN080 19/19 A3001 RMK AO2 T01900190
KGNC 211035Z AUTO 00000KT 10SM SCT060 SCT080 19/19 A3000 RMK AO2 T01900190
KGNC 211015Z AUTO 30003KT 10SM SCT110 19/19 A2999 RMK AO2 T01900190
KGNC 210955Z AUTO 00000KT 10SM BKN120 20/20 A2998 RMK AO2 T01950195
KGNC 210935Z AUTO 00000KT 10SM SCT030 OVC120 20/20 A2998 RMK AO2 T01950195
KGNC 210915Z AUTO 00000KT 10SM OVC030 20/20 A2999 RMK AO2 T01950195
KGNC 210855Z AUTO 00000KT 10SM BKN030 BKN038 OVC044 20/20 A2999 RMK AO2 60001 T01970197
KGNC 210835Z AUTO 00000KT 10SM BKN030 BKN037 OVC044 20/20 A2999 RMK AO2 T02000200
KGNC 210815Z AUTO 00000KT 10SM BKN028 BKN120 20/20 A2999 RMK AO2 T02000200
KGNC 210755Z AUTO 00000KT 10SM CLR 20/20 A2999 RMK AO2 T02000200
KGNC 210735Z AUTO 00000KT 10SM SCT035 SCT044 SCT055 20/20 A2999 RMK AO2 T02020202
KGNC 210715Z AUTO 00000KT 10SM SCT026 BKN034 OVC055 20/20 A3000 RMK AO2 T02020202
KGNC 210655Z AUTO 00000KT 10SM SCT005 BKN026 OVC032 20/20 A3000 RMK AO2 P0001 T02030203
KGNC 210635Z AUTO 00000KT 10SM BKN005 OVC019 20/20 A3000 RMK AO2 P0001 T02020202
KGNC 210615Z AUTO 00000KT 7SM -DZ SCT003 BKN019 OVC044 20/20 A3000 RMK AO2 P0001 T02010201
KGNC 210555Z AUTO 00000KT 10SM BKN017 OVC027 20/20 A3000 RMK AO2 60050 T02000200 10260 20191 402830175
KGNC 210535Z AUTO 17004KT 10SM BKN019 OVC049 20/20 A3001 RMK AO2 T01980198
KGNC 210515Z AUTO 16004KT 10SM -DZ BKN019 BKN025 BKN031 20/20 A3001 RMK AO2 T02000200
KGNC 210455Z AUTO 16004KT 10SM -RA SCT025 SCT110 20/20 A3001 RMK AO2 P0004 T02000200
KGNC 210435Z AUTO 13003KT 10SM RA SCT042 SCT050 BKN110 20/20 A3001 RMK AO2 P0004 T01980198
KGNC 210415Z AUTO 00000KT 5SM RA SCT024 BKN050 OVC065 20/20 A3000 RMK AO2 P0003 T01970197
KGNC 210355Z AUTO 00000KT 7SM -RA SCT029 BKN046 OVC110 20/20 A3000 RMK AO2 P0009 T01960196
KGNC 210335Z AUTO 29004KT 7SM -RA SCT037 BKN044 OVC110 20/20 A3000 RMK AO2 P0007 T01950195
KGNC 210315Z AUTO 28006KT 7SM RA SCT037 BKN085 OVC110 19/19 A3000 RMK AO2 P0004 T01930193
KGNC 210255Z AUTO 28007KT 7SM RA SCT014 BKN041 OVC050 19/19 A3000 RMK AO2 P0036 60036 T01910191
KGNC 210235Z AUTO 24010KT 2 1/2SM +RA SCT014 BKN023 OVC032 20/19 A2999 RMK AO2 P0030 T01950189
KGNC 210215Z AUTO 23011G21KT 7SM +RA SCT023 BKN041 OVC120 22/18 A2998 RMK AO2 T02220183
KGNC 210155Z AUTO 18005KT 10SM OVC110 24/17 A2996 RMK AO2 T02400172
KGNC 210135Z AUTO 20005KT 10SM SCT085 OVC110 24/17 A2995 RMK AO2 T02430170
KGNC 210115Z AUTO 20007KT 10SM BKN085 OVC110 25/17 A2995 RMK AO2 T02460170
KGNC 210055Z AUTO 20007KT 10SM BKN085 BKN110 25/17 A2994 RMK AO2 T02510168
KGNC 210035Z AUTO 20008KT 10SM SCT100 25/17 A2994 RMK AO2 T02540166
KGNC 210015Z AUTO 20010G15KT 10SM CLR 26/16 A2993 RMK AO2 T02570161
KGNC 202355Z AUTO 19008KT 10SM CLR 26/16 A2992 RMK AO2 60004 T02600157 10283 20218
KGNC 202335Z AUTO 19009KT 10SM CLR 26/16 A2992 RMK AO2 T02610161
KGNC 202315Z AUTO 19012G17KT 10SM SCT090 SCT120 26/16 A2992 RMK AO2 T02630160
KGNC 202255Z AUTO 20012G17KT 10SM BKN100 28/16 A2992 RMK AO2 T02760159
KGNC 202235Z AUTO 20014G19KT 10SM SCT047 SCT060 SCT100 27/16 A2991 RMK AO2 T02660160
KGNC 202215Z AUTO 19013KT 10SM SCT047 SCT060 SCT095 27/16 A2991 RMK AO2 T02710157
KGNC 202155Z AUTO 18011G21KT 10SM SCT043 SCT049 BKN100 27/16 A2991 RMK AO2 T02710162
KGNC 202135Z AUTO 18012G19KT 10SM SCT047 SCT100 27/16 A2992 RMK AO2 T02740164
KGNC 202115Z AUTO 19012G19KT 10SM CLR 28/16 A2992 RMK AO2 T02780157
KGNC 202055Z AUTO 21012G15KT 10SM SCT042 SCT100 27/16 A2992 RMK AO2 60004 T02710162
KGNC 202035Z AUTO 19010KT 10SM SCT038 BKN100 OVC120 27/16 A2993 RMK AO2 T02700163
KGNC 202015Z AUTO 17012G16KT 10SM OVC110 26/17 A2995 RMK AO2 T02550167
KGNC 201955Z AUTO 18010G15KT 10SM SCT090 BKN120 25/17 A2995 RMK AO2 P0001 T02540170
KGNC 201935Z AUTO 18010KT 10SM SCT065 SCT080 24/18 A2996 RMK AO2 P0001 T02440184
KGNC 201915Z AUTO 18012G15KT 10SM SCT013 BKN055 OVC080 23/20 A2997 RMK AO2 P0001 T02340199
KGNC 201855Z AUTO 18013G26KT 5SM +RA BKN038 BKN049 OVC070 24/18 A2998 RMK AO2 P0003 T02380177
KGNC 201835Z AUTO 20013G16KT 10SM SCT040 SCT049 BKN060 27/16 A2998 RMK AO2 T02680158
KGNC 201815Z AUTO 17013G19KT 10SM BKN040 BKN047 BKN060 27/16 A2999 RMK AO2 T02730160
KGNC 201755Z AUTO 17013G19KT 10SM SCT040 SCT050 BKN055 27/16 A3000 RMK AO2 T02660156 10275 20175
KGNC 201735Z AUTO 19014G19KT 10SM SCT036 BKN048 27/16 A3001 RMK AO2 T02670159
KGNC 201715Z AUTO 18014G19KT 10SM SCT034 BKN041 SCT050 26/16 A3001 RMK AO2 T02640164
KGNC 201655Z AUTO 17015KT 10SM SCT031 SCT038 26/16 A3002 RMK AO2 T02570164
KGNC 201635Z AUTO 18016G22KT 10SM BKN029 25/17 A3002 RMK AO2 T02460165
KGNC 201615Z AUTO 17012G21KT 10SM BKN027 25/17 A3002 RMK AO2 T02530170
KGNC 201555Z AUTO 18016G20KT 10SM SCT027 25/17 A3003 RMK AO2 T02450166
KGNC 201535Z AUTO 17014G19KT 10SM SCT020 SCT026 24/17 A3003 RMK AO2 T02390170
KGNC 201515Z AUTO 17014G18KT 10SM SCT020 24/18 A3002 RMK AO2 T02410177
KGNC 201455Z AUTO 18013G22KT 10SM SCT014 23/18 A3002 RMK AO2 T02250176
KGNC 201435Z AUTO 17014G17KT 10SM BKN012 22/18 A3002 RMK AO2 T02230180
KGNC 201415Z AUTO 17011G18KT 10SM BKN010 21/18 A3002 RMK AO2 T02100180
KGNC 201355Z AUTO 16010G16KT 10SM SCT010 21/19 A3001 RMK AO2 T02050191
KGNC 201335Z AUTO 16009KT 10SM CLR 20/19 A3001 RMK AO2 T01960191
KGNC 201315Z AUTO 15006KT 10SM CLR 19/19 A3001 RMK AO2 T01850185
KGNC 201255Z AUTO 15005KT 10SM CLR 18/18 A3000 RMK AO2 T01800180
KGNC 201235Z AUTO 14005KT 10SM CLR 18/18 A3000 RMK AO2 T01760175
KGNC 201215Z AUTO 16004KT 10SM CLR 18/17 A2999 RMK AO2 T01750172
KGNC 201155Z AUTO 16005KT 10SM CLR 18/17 A2999 RMK AO2 T01760170 10205 20176
KGNC 201135Z AUTO 15005KT 10SM CLR 18/17 A2999 RMK AO2 T01760169
KGNC 201115Z AUTO 15006KT 10SM CLR 18/17 A2999 RMK AO2 T01770167
KGNC 201055Z AUTO 16006KT 10SM CLR 18/16 A2999 RMK AO2 T01800162
KGNC 201035Z AUTO 15006KT 10SM CLR 19/16 A2999 RMK AO2 T01850161
KGNC 201015Z AUTO 17008KT 10SM CLR 19/16 A2998 RMK AO2 T01900161
KGNC 200955Z AUTO 16009KT 10SM CLR 19/16 A2998 RMK AO2 T01900160
KGNC 200935Z AUTO 17007KT 10SM CLR 19/16 A2999 RMK AO2 T01880155
KGNC 200915Z AUTO 16008KT 10SM CLR 19/15 A2999 RMK AO2 T01890153
KGNC 200855Z AUTO 16007KT 10SM CLR 19/15 A2999 RMK AO2 T01880150
KGNC 200835Z AUTO 16006KT 10SM CLR 19/15 A2999 RMK AO2 T01860145
KGNC 200815Z AUTO 15008KT 10SM CLR 19/14 A2999 RMK AO2 T01870142
KGNC 200755Z AUTO 16007KT 10SM CLR 19/14 A3000 RMK AO2 T01880139
KGNC 200735Z AUTO 17007KT 10SM CLR 19/14 A3000 RMK AO2 T01900137
KGNC 200715Z AUTO 15006KT 10SM CLR 19/14 A3000 RMK AO2 T01920135
KGNC 200655Z AUTO 16005KT 10SM CLR 20/13 A3000 RMK AO2 T01960133
KGNC 200635Z AUTO 16007KT 10SM CLR 20/13 A2999 RMK AO2 T02000133
KGNC 200615Z AUTO 16006KT 10SM CLR 21/14 A3000 RMK AO2 T02050135
KGNC 200555Z AUTO 16008KT 10SM CLR 21/14 A3001 RMK AO2 T02050138 10285 20202 403090177
KGNC 200535Z AUTO 16009KT 10SM CLR 21/15 A3001 RMK AO2 T02050146